createdAt,value
2022-09-28T00:01:20.648Z,1.08
2022-09-28T00:03:50.726Z,1.00
2022-09-28T00:06:20.430Z,0.60
2022-09-28T00:08:50.181Z,0.70
2022-09-28T00:11:20.637Z,1.40
2022-09-28T00:13:52.409Z,1.08
2022-09-28T00:16:22.519Z,0.88
2022-09-28T00:18:51.119Z,1.73
2022-09-28T00:21:21.599Z,0.80
2022-09-28T00:24:09.915Z,0.80
2022-09-28T00:26:39.873Z,0.82
2022-09-28T00:29:17.096Z,1.20
2022-09-28T00:31:45.351Z,1.25
2022-09-28T00:34:14.196Z,1.67
2022-09-28T00:36:45.575Z,1.87
2022-09-28T00:39:17.415Z,1.42
2022-09-28T00:41:49.250Z,2.28
2022-09-28T00:44:50.444Z,1.45
2022-09-28T00:47:28.104Z,2.12
2022-09-28T00:50:00.796Z,1.50
2022-09-28T00:52:33.775Z,1.20
2022-09-28T00:55:04.934Z,1.40
2022-09-28T00:57:34.028Z,1.92
2022-09-28T01:00:06.124Z,1.20
2022-09-28T01:02:34.343Z,3.53
2022-09-28T01:05:06.151Z,1.50
2022-09-28T01:07:36.548Z,1.52
2022-09-28T01:10:06.106Z,1.77
2022-09-28T01:12:34.147Z,1.25
2022-09-28T01:15:05.530Z,1.50
2022-09-28T01:17:42.809Z,1.70
2022-09-28T01:20:28.624Z,2.47
2022-09-28T01:23:33.040Z,1.17
2022-09-28T01:26:22.030Z,1.15
2022-09-28T01:28:55.549Z,1.95
2022-09-28T01:31:30.547Z,3.65
2022-09-28T01:34:04.912Z,1.60
2022-09-28T01:36:39.252Z,2.00
2022-09-28T01:39:11.967Z,1.50
2022-09-28T01:41:44.470Z,1.40
2022-09-28T01:44:19.939Z,2.67
2022-09-28T01:46:50.135Z,2.92
2022-09-28T01:49:22.096Z,1.23
2022-09-28T01:51:56.472Z,1.75
2022-09-28T01:54:32.801Z,1.12
2022-09-28T01:57:08.970Z,1.27
2022-09-28T01:59:41.763Z,0.95
2022-09-28T02:02:15.578Z,1.45
2022-09-28T02:04:48.607Z,1.95
2022-09-28T02:07:21.549Z,1.12
2022-09-28T02:09:57.123Z,1.75
2022-09-28T02:12:32.790Z,1.60
2022-09-28T02:15:11.651Z,3.37
2022-09-28T02:17:39.958Z,1.62
2022-09-28T02:20:09.795Z,3.00
2022-09-28T02:22:42.970Z,1.45
2022-09-28T02:25:14.873Z,2.95
2022-09-28T02:27:51.066Z,0.70
2022-09-28T02:30:19.543Z,1.15
2022-09-28T02:32:50.088Z,0.70
2022-09-28T02:35:19.807Z,1.20
2022-09-28T02:37:48.300Z,1.52
2022-09-28T02:40:18.218Z,3.15
2022-09-28T02:42:55.324Z,3.37
2022-09-28T02:45:39.062Z,2.15
2022-09-28T02:48:31.455Z,2.45
2022-09-28T02:51:21.497Z,3.12
2022-09-28T02:54:29.814Z,2.05
2022-09-28T02:57:13.458Z,2.10
2022-09-28T02:59:50.545Z,1.80
2022-09-28T03:02:29.155Z,2.55
2022-09-28T03:05:19.754Z,1.17
2022-09-28T03:07:58.144Z,1.10
2022-09-28T03:10:34.312Z,1.98
2022-09-28T03:13:04.579Z,0.60
2022-09-28T03:15:36.534Z,1.15
2022-09-28T03:18:05.524Z,2.12
2022-09-28T03:20:34.535Z,0.50
2022-09-28T03:23:25.163Z,3.45
2022-09-28T03:25:54.495Z,0.70
2022-09-28T03:28:23.230Z,1.10
2022-09-28T03:30:52.717Z,0.95
2022-09-28T03:33:20.906Z,0.45
2022-09-28T03:35:50.442Z,0.73
2022-09-28T03:38:19.358Z,0.93
2022-09-28T03:40:53.995Z,1.17
2022-09-28T03:43:22.567Z,0.60
2022-09-28T03:45:56.618Z,0.70
2022-09-28T03:48:31.226Z,0.22
2022-09-28T03:51:02.437Z,0.50
2022-09-28T03:53:36.920Z,1.08
2022-09-28T03:56:06.492Z,0.60
2022-09-28T03:58:35.670Z,2.30
2022-09-28T04:01:07.428Z,0.55
2022-09-28T04:03:36.012Z,0.52
2022-09-28T04:06:04.051Z,0.82
2022-09-28T04:08:32.306Z,0.40
2022-09-28T04:11:01.249Z,0.57
2022-09-28T04:13:30.335Z,0.43
2022-09-28T04:16:00.544Z,1.20
2022-09-28T04:18:31.287Z,0.20
2022-09-28T04:21:04.606Z,1.55
2022-09-28T04:23:34.615Z,0.85
2022-09-28T04:26:02.780Z,0.82
2022-09-28T04:28:48.611Z,0.50
2022-09-28T04:31:19.484Z,0.75
2022-09-28T04:33:48.826Z,7.03
2022-09-28T04:36:17.911Z,0.43
2022-09-28T04:38:53.261Z,0.85
2022-09-28T04:41:22.827Z,0.82
2022-09-28T04:43:51.262Z,1.10
2022-09-28T04:46:20.131Z,1.80
2022-09-28T04:48:50.711Z,1.77
2022-09-28T04:51:19.786Z,0.50
2022-09-28T04:53:47.823Z,2.10
2022-09-28T04:56:17.472Z,0.52
2022-09-28T04:58:49.102Z,0.62
2022-09-28T05:01:23.523Z,0.50
2022-09-28T05:03:54.096Z,1.45
2022-09-28T05:06:22.916Z,0.85
2022-09-28T05:08:51.903Z,1.17
2022-09-28T05:11:21.341Z,1.17
2022-09-28T05:13:50.436Z,1.33
2022-09-28T05:16:20.273Z,2.35
2022-09-28T05:18:49.396Z,0.88
2022-09-28T05:21:20.042Z,0.43
2022-09-28T05:23:48.754Z,0.88
2022-09-28T05:26:16.703Z,1.75
2022-09-28T05:28:45.087Z,0.73
2022-09-28T05:31:14.715Z,1.30
2022-09-28T05:33:45.330Z,0.88
2022-09-28T05:36:13.830Z,1.05
2022-09-28T05:38:44.532Z,0.73
2022-09-28T05:41:12.939Z,1.75
2022-09-28T05:43:40.867Z,0.82
2022-09-28T05:46:08.945Z,1.48
2022-09-28T05:48:38.306Z,1.00
2022-09-28T05:51:06.656Z,0.73
2022-09-28T05:53:34.570Z,3.05
2022-09-28T05:56:04.232Z,1.85
2022-09-28T05:58:32.307Z,1.30
2022-09-28T06:01:00.371Z,0.95
2022-09-28T06:03:28.650Z,0.90
2022-09-28T06:05:56.592Z,2.17
2022-09-28T06:08:24.960Z,1.17
2022-09-28T06:10:53.622Z,1.30
2022-09-28T06:13:22.868Z,1.10
2022-09-28T06:15:52.188Z,1.48
2022-09-28T06:18:20.562Z,1.33
2022-09-28T06:20:48.839Z,1.37
2022-09-28T06:23:16.829Z,4.10
2022-09-28T06:25:45.085Z,1.92
2022-09-28T06:28:14.791Z,1.62
2022-09-28T06:30:45.071Z,3.85
2022-09-28T06:33:15.179Z,4.20
2022-09-28T06:35:43.274Z,2.65
2022-09-28T06:38:11.414Z,1.35
2022-09-28T06:40:39.697Z,2.03
2022-09-28T06:43:10.851Z,2.70
2022-09-28T06:45:52.106Z,1.52
2022-09-28T06:48:20.805Z,1.60
2022-09-28T06:50:50.947Z,1.60
2022-09-28T06:53:20.325Z,3.85
2022-09-28T06:55:49.226Z,2.33
2022-09-28T06:58:20.007Z,2.33
2022-09-28T07:00:52.185Z,2.08
2022-09-28T07:03:22.027Z,2.87
2022-09-28T07:05:52.622Z,1.42
2022-09-28T07:08:22.061Z,1.50
2022-09-28T07:10:56.238Z,2.25
2022-09-28T07:13:47.764Z,1.70
2022-09-28T07:16:15.100Z,3.08
2022-09-28T07:18:43.068Z,3.53
2022-09-28T07:21:21.546Z,3.15
2022-09-28T07:23:55.221Z,5.07
2022-09-28T07:26:26.687Z,1.87
2022-09-28T07:28:55.767Z,2.15
2022-09-28T07:31:26.172Z,1.27
2022-09-28T07:33:56.040Z,2.05
2022-09-28T07:36:24.355Z,2.40
2022-09-28T07:38:53.660Z,2.15
2022-09-28T07:41:32.202Z,4.68
2022-09-28T07:44:05.382Z,2.15
2022-09-28T07:46:35.433Z,2.55
2022-09-28T07:49:08.323Z,2.28
2022-09-28T07:51:39.760Z,1.67
2022-09-28T07:54:10.339Z,2.35
2022-09-28T07:56:38.655Z,2.78
2022-09-28T07:59:06.798Z,2.58
2022-09-28T08:01:38.976Z,2.03
2022-09-28T08:04:07.388Z,2.45
2022-09-28T08:06:35.794Z,1.70
2022-09-28T08:09:04.047Z,1.73
2022-09-28T08:11:33.758Z,3.85
2022-09-28T08:14:02.248Z,2.33
2022-09-28T08:16:34.078Z,2.00
2022-09-28T08:19:05.848Z,1.85
2022-09-28T08:21:45.042Z,2.05
2022-09-28T08:24:13.857Z,2.85
2022-09-28T08:26:43.130Z,3.75
2022-09-28T08:29:12.099Z,3.42
2022-09-28T08:31:40.284Z,2.87
2022-09-28T08:34:10.703Z,3.58
2022-09-28T08:36:39.845Z,2.55
2022-09-28T08:39:09.730Z,2.50
2022-09-28T08:41:46.367Z,2.70
2022-09-28T08:44:23.784Z,1.67
2022-09-28T08:46:57.632Z,1.77
2022-09-28T08:49:34.881Z,1.58
2022-09-28T08:52:10.980Z,2.28
2022-09-28T08:54:45.664Z,3.40
2022-09-28T08:57:17.337Z,1.85
2022-09-28T08:59:51.269Z,2.50
2022-09-28T09:02:25.391Z,4.75
2022-09-28T09:04:57.012Z,3.35
2022-09-28T09:07:51.798Z,3.00
2022-09-28T09:10:50.473Z,1.42
2022-09-28T09:13:45.777Z,4.53
2022-09-28T09:16:30.194Z,0.90
2022-09-28T09:19:07.853Z,0.70
2022-09-28T09:21:49.570Z,1.00
2022-09-28T09:24:29.815Z,0.98
2022-09-28T09:27:06.545Z,1.27
2022-09-28T09:29:57.989Z,0.28
2022-09-28T09:32:48.036Z,0.40
2022-09-28T09:35:31.482Z,0.80
2022-09-28T09:38:22.801Z,1.08
2022-09-28T09:41:03.479Z,1.20
2022-09-28T09:43:53.509Z,0.50
2022-09-28T09:46:29.555Z,0.30
2022-09-28T09:49:05.144Z,0.30
2022-09-28T09:51:42.690Z,0.77
2022-09-28T09:54:20.288Z,0.10
2022-09-28T09:56:54.756Z,2.60
2022-09-28T09:59:33.662Z,0.10
2022-09-28T10:02:03.902Z,0.25
2022-09-28T10:04:38.646Z,0.37
2022-09-28T10:07:15.577Z,0.55
2022-09-28T10:09:47.357Z,0.20
2022-09-28T10:12:20.806Z,0.40
2022-09-28T10:14:49.548Z,0.10
2022-09-28T10:17:20.111Z,0.20
2022-09-28T10:19:52.234Z,0.13
2022-09-28T10:22:27.072Z,0.10
2022-09-28T10:25:00.570Z,0.62
2022-09-28T10:27:32.828Z,0.10
2022-09-28T10:30:03.621Z,0.13
2022-09-28T10:32:38.908Z,0.20
2022-09-28T10:35:24.832Z,0.47
2022-09-28T10:37:59.284Z,0.13
2022-09-28T10:40:46.169Z,0.15
2022-09-28T10:43:22.764Z,0.20
2022-09-28T10:46:01.919Z,0.20
2022-09-28T10:48:36.447Z,0.20
2022-09-28T10:51:07.296Z,0.50
2022-09-28T10:53:38.348Z,0.55
2022-09-28T10:56:20.273Z,0.15
2022-09-28T10:58:48.912Z,0.22
2022-09-28T11:01:21.981Z,0.20
2022-09-28T11:03:54.841Z,0.30
2022-09-28T11:06:27.779Z,1.20
2022-09-28T11:08:58.531Z,0.30
2022-09-28T11:11:29.612Z,1.65
2022-09-28T11:14:01.432Z,0.20
2022-09-28T11:16:31.895Z,0.32
2022-09-28T11:19:05.272Z,0.20
2022-09-28T11:21:42.844Z,4.97
2022-09-28T11:24:20.773Z,0.65
2022-09-28T11:26:53.432Z,0.30
2022-09-28T11:29:26.258Z,0.30
2022-09-28T11:31:54.677Z,0.40
2022-09-28T11:34:41.585Z,0.30
2022-09-28T11:37:28.999Z,1.67
2022-09-28T11:40:08.353Z,3.53
2022-09-28T11:42:44.635Z,1.55
2022-09-28T11:45:31.407Z,0.30
2022-09-28T11:48:04.595Z,0.30
2022-09-28T11:50:43.643Z,2.92
2022-09-28T11:53:23.456Z,0.82
2022-09-28T11:55:58.033Z,0.68
2022-09-28T11:58:32.372Z,0.35
2022-09-28T12:01:07.708Z,0.25
2022-09-28T12:03:42.153Z,0.80
2022-09-28T12:06:16.832Z,0.20
2022-09-28T12:08:53.636Z,0.30
2022-09-28T12:11:29.572Z,0.55
2022-09-28T12:14:04.981Z,0.45
2022-09-28T12:17:04.357Z,0.37
2022-09-28T12:19:33.255Z,0.20
2022-09-28T12:22:05.174Z,0.20
2022-09-28T12:24:39.447Z,0.40
2022-09-28T12:27:15.326Z,0.40
2022-09-28T12:29:49.157Z,0.20
2022-09-28T12:32:28.276Z,0.30
2022-09-28T12:34:57.443Z,0.28
2022-09-28T12:37:40.012Z,0.20
2022-09-28T12:40:29.058Z,0.30
2022-09-28T12:43:12.143Z,0.50
2022-09-28T12:46:11.578Z,0.30
2022-09-28T12:50:01.787Z,1.65
2022-09-28T12:52:13.594Z,1.37
2022-09-28T12:54:57.181Z,0.65
2022-09-28T12:57:40.210Z,1.85
2022-09-28T13:00:13.327Z,0.80
2022-09-28T13:03:07.039Z,0.40
2022-09-28T13:06:17.535Z,0.52
2022-09-28T13:08:57.613Z,0.30
2022-09-28T13:11:34.054Z,0.88
2022-09-28T13:14:24.768Z,0.20
2022-09-28T13:17:00.856Z,0.40
2022-09-28T13:19:40.559Z,0.20
2022-09-28T13:22:22.923Z,0.32
2022-09-28T13:24:52.488Z,1.65
2022-09-28T13:27:30.456Z,0.30
2022-09-28T13:30:02.383Z,0.20
2022-09-28T13:32:33.986Z,0.75
2022-09-28T13:35:03.912Z,0.40
2022-09-28T13:37:32.114Z,0.20
2022-09-28T13:40:05.950Z,0.68
2022-09-28T13:42:59.888Z,0.40
2022-09-28T13:45:38.758Z,0.30
2022-09-28T13:48:16.525Z,0.20
2022-09-28T13:51:05.624Z,0.30
2022-09-28T13:53:51.021Z,0.40
2022-09-28T13:56:30.064Z,0.98
2022-09-28T13:59:02.314Z,0.90
2022-09-28T14:01:36.895Z,0.57
2022-09-28T14:04:17.549Z,0.82
2022-09-28T14:06:54.837Z,0.57
2022-09-28T14:09:43.845Z,0.20
2022-09-28T14:12:47.742Z,1.80
2022-09-28T14:15:45.950Z,0.20
2022-09-28T14:18:23.402Z,7.85
2022-09-28T14:21:03.863Z,3.12
2022-09-28T14:23:54.213Z,0.75
2022-09-28T14:26:58.391Z,0.10
2022-09-28T14:29:29.351Z,1.00
2022-09-28T14:31:59.215Z,0.32
2022-09-28T14:34:34.134Z,0.20
2022-09-28T14:37:22.650Z,0.40
2022-09-28T14:40:10.371Z,0.47
2022-09-28T14:42:38.662Z,0.37
2022-09-28T14:45:22.004Z,0.60
2022-09-28T14:48:12.390Z,1.45
2022-09-28T14:50:40.478Z,1.75
2022-09-28T14:53:13.473Z,1.25
2022-09-28T14:55:52.256Z,4.80
2022-09-28T14:58:23.649Z,3.40
2022-09-28T15:01:00.974Z,0.35
2022-09-28T15:03:32.736Z,0.60
2022-09-28T15:06:01.570Z,2.20
2022-09-28T15:08:40.510Z,4.03
2022-09-28T15:11:15.878Z,3.08
2022-09-28T15:13:44.713Z,3.10
2022-09-28T15:16:15.089Z,1.23
2022-09-28T15:19:02.595Z,2.17
2022-09-28T15:21:36.694Z,1.48
2022-09-28T15:24:24.874Z,4.78
2022-09-28T15:26:54.207Z,1.55
2022-09-28T15:29:23.785Z,3.62
2022-09-28T15:31:54.533Z,3.75
2022-09-28T15:34:48.580Z,3.47
2022-09-28T15:37:18.967Z,2.17
2022-09-28T15:39:48.098Z,2.62
2022-09-28T15:42:18.425Z,2.10
2022-09-28T15:45:26.826Z,5.90
2022-09-28T15:48:18.436Z,3.10
2022-09-28T15:50:59.400Z,2.95
2022-09-28T15:53:28.396Z,4.37
2022-09-28T15:56:03.468Z,4.00
2022-09-28T15:58:32.941Z,3.92
2022-09-28T16:01:29.325Z,3.33
2022-09-28T16:03:57.560Z,4.05
2022-09-28T16:06:25.462Z,4.00
2022-09-28T16:08:53.740Z,3.40
2022-09-28T16:11:26.188Z,2.70
2022-09-28T16:14:05.967Z,3.20
2022-09-28T16:16:41.136Z,5.45
2022-09-28T16:19:24.092Z,3.67
2022-09-28T16:21:55.323Z,2.47
2022-09-28T16:24:25.450Z,4.10
2022-09-28T16:26:59.671Z,3.75
2022-09-28T16:29:39.101Z,4.10
2022-09-28T16:32:35.010Z,4.20
2022-09-28T16:35:18.106Z,3.62
2022-09-28T16:37:48.804Z,3.97
2022-09-28T16:40:17.374Z,3.72
2022-09-28T16:42:49.047Z,3.10
2022-09-28T16:45:23.381Z,4.35
2022-09-28T16:47:52.681Z,3.75
2022-09-28T16:50:21.753Z,3.78
2022-09-28T16:53:09.132Z,3.65
2022-09-28T16:55:40.917Z,4.85
2022-09-28T16:58:09.402Z,3.70
2022-09-28T17:00:38.842Z,3.58
2022-09-28T17:03:14.442Z,5.90
2022-09-28T17:05:43.059Z,3.37
2022-09-28T17:08:15.632Z,2.87
2022-09-28T17:11:13.112Z,4.15
2022-09-28T17:13:37.394Z,4.70
2022-09-28T17:16:11.328Z,4.37
2022-09-28T17:18:39.802Z,4.80
2022-09-28T17:21:13.371Z,5.65
2022-09-28T17:23:41.351Z,4.95
2022-09-28T17:26:18.599Z,4.55
2022-09-28T17:28:47.745Z,5.07
2022-09-28T17:31:18.005Z,4.00
2022-09-28T17:33:46.467Z,3.60
2022-09-28T17:36:16.863Z,5.03
2022-09-28T17:38:47.610Z,4.60
2022-09-28T17:41:20.395Z,5.03
2022-09-28T17:43:49.305Z,5.90
2022-09-28T17:46:27.894Z,3.60
2022-09-28T17:48:59.347Z,4.55
2022-09-28T17:51:30.097Z,5.65
2022-09-28T17:53:58.902Z,4.90
2022-09-28T17:56:31.670Z,4.80
2022-09-28T17:59:03.034Z,5.65
2022-09-28T18:01:34.933Z,4.75
2022-09-28T18:04:04.934Z,9.52
2022-09-28T18:06:33.883Z,8.25
2022-09-28T18:09:04.105Z,6.18
2022-09-28T18:11:35.500Z,4.45
2022-09-28T18:14:07.863Z,8.50
2022-09-28T18:16:40.340Z,5.03
2022-09-28T18:19:08.434Z,4.60
2022-09-28T18:21:36.571Z,5.65
2022-09-28T18:24:06.853Z,4.32
2022-09-28T18:26:35.801Z,5.32
2022-09-28T18:29:03.901Z,3.87
2022-09-28T18:31:32.246Z,3.53
2022-09-28T18:34:02.055Z,4.00
2022-09-28T18:36:30.377Z,4.18
2022-09-28T18:39:00.927Z,3.47
2022-09-28T18:41:29.381Z,3.10
2022-09-28T18:44:00.734Z,3.42
2022-09-28T18:46:30.418Z,2.87
2022-09-28T18:48:58.546Z,2.87
2022-09-28T18:51:27.912Z,2.53
2022-09-28T18:53:56.295Z,4.07
2022-09-28T18:56:24.712Z,5.70
2022-09-28T18:58:52.815Z,3.50
2022-09-28T19:01:30.910Z,3.08
2022-09-28T19:04:01.063Z,8.13
2022-09-28T19:06:31.729Z,4.70
2022-09-28T19:08:59.956Z,5.18
2022-09-28T19:11:28.835Z,4.55
2022-09-28T19:13:57.630Z,3.95
2022-09-28T19:16:28.683Z,4.97
2022-09-28T19:18:57.878Z,4.95
2022-09-28T19:21:27.078Z,5.22
2022-09-28T19:23:56.584Z,4.90
2022-09-28T19:26:27.382Z,3.85
2022-09-28T19:28:57.692Z,3.50
2022-09-28T19:31:26.375Z,2.87
2022-09-28T19:33:54.427Z,3.40
2022-09-28T19:36:25.869Z,3.37
2022-09-28T19:38:54.085Z,2.78
2022-09-28T19:41:45.666Z,4.90
2022-09-28T19:44:19.344Z,3.40
2022-09-28T19:46:47.462Z,3.40
2022-09-28T19:49:19.612Z,2.83
2022-09-28T19:52:11.468Z,5.00
2022-09-28T19:54:37.609Z,3.08
2022-09-28T19:57:07.584Z,3.00
2022-09-28T19:59:36.591Z,4.20
2022-09-28T20:02:05.459Z,3.15
2022-09-28T20:04:33.764Z,3.62
2022-09-28T20:07:01.927Z,4.53
2022-09-28T20:09:30.067Z,4.78
2022-09-28T20:11:58.328Z,4.25
2022-09-28T20:14:32.073Z,5.12
2022-09-28T20:17:01.428Z,3.95
2022-09-28T20:19:29.411Z,4.62
2022-09-28T20:21:58.580Z,5.15
2022-09-28T20:24:28.756Z,2.65
2022-09-28T20:26:56.895Z,3.85
2022-09-28T20:29:25.280Z,3.62
2022-09-28T20:31:54.910Z,4.75
2022-09-28T20:34:22.841Z,3.08
2022-09-28T20:36:50.852Z,6.47
2022-09-28T20:39:19.307Z,5.22
2022-09-28T20:41:49.032Z,7.20
2022-09-28T20:44:17.428Z,4.70
2022-09-28T20:46:45.801Z,3.15
2022-09-28T20:49:15.260Z,4.43
2022-09-28T20:51:43.294Z,4.28
2022-09-28T20:54:11.691Z,3.83
2022-09-28T20:56:39.818Z,3.15
2022-09-28T20:59:11.081Z,3.47
2022-09-28T21:01:39.866Z,2.58
2022-09-28T21:04:10.118Z,4.75
2022-09-28T21:06:40.975Z,2.95
2022-09-28T21:09:10.584Z,4.10
2022-09-28T21:11:39.478Z,3.50
2022-09-28T21:14:09.621Z,3.12
2022-09-28T21:16:38.387Z,3.20
2022-09-28T21:19:06.437Z,2.58
2022-09-28T21:21:34.460Z,3.08
2022-09-28T21:24:04.708Z,2.83
2022-09-28T21:26:33.434Z,3.65
2022-09-28T21:29:03.036Z,4.47
2022-09-28T21:31:33.615Z,4.45
2022-09-28T21:34:01.835Z,3.28
2022-09-28T21:36:29.835Z,3.12
2022-09-28T21:38:58.659Z,2.30
2022-09-28T21:41:29.110Z,2.65
2022-09-28T21:43:57.666Z,3.03
2022-09-28T21:46:26.818Z,4.05
2022-09-28T21:48:55.075Z,5.53
2022-09-28T21:51:23.365Z,3.55
2022-09-28T21:53:51.553Z,4.10
2022-09-28T21:56:19.623Z,2.60
2022-09-28T21:58:50.407Z,3.45
2022-09-28T22:01:20.701Z,2.75
2022-09-28T22:03:51.614Z,4.78
2022-09-28T22:06:21.736Z,2.37
2022-09-28T22:08:51.337Z,3.60
2022-09-28T22:11:21.407Z,2.87
2022-09-28T22:13:52.525Z,1.92
2022-09-28T22:16:22.820Z,2.70
2022-09-28T22:18:51.521Z,3.03
2022-09-28T22:21:21.544Z,2.42
2022-09-28T22:23:50.815Z,1.73
2022-09-28T22:26:20.861Z,2.65
2022-09-28T22:28:51.863Z,3.03
2022-09-28T22:31:23.047Z,1.62
2022-09-28T22:33:51.343Z,2.03
2022-09-28T22:36:19.931Z,2.67
2022-09-28T22:38:48.946Z,2.85
2022-09-28T22:41:20.730Z,2.90
2022-09-28T22:43:49.803Z,3.70
2022-09-28T22:46:20.586Z,2.58
2022-09-28T22:48:50.492Z,2.47
2022-09-28T22:51:18.534Z,1.90
2022-09-28T22:53:46.729Z,2.78
2022-09-28T22:56:18.708Z,3.60
2022-09-28T22:58:47.746Z,3.28
2022-09-28T23:01:18.514Z,3.95
2022-09-28T23:03:48.339Z,4.07
2022-09-28T23:06:18.653Z,2.80
2022-09-28T23:08:47.710Z,2.45
2022-09-28T23:11:16.650Z,3.90
2022-09-28T23:13:49.760Z,3.42
2022-09-28T23:16:17.899Z,3.47
2022-09-28T23:18:49.165Z,3.60
2022-09-28T23:21:18.774Z,2.35
2022-09-28T23:23:52.114Z,2.00
2022-09-28T23:26:21.886Z,2.67
2022-09-28T23:28:50.609Z,4.95
2022-09-28T23:31:20.532Z,3.92
2022-09-28T23:33:50.341Z,2.55
2022-09-28T23:36:19.318Z,2.28
2022-09-28T23:38:47.394Z,2.67
2022-09-28T23:41:15.484Z,2.60
2022-09-28T23:43:43.796Z,7.53
2022-09-28T23:46:12.475Z,3.85
2022-09-28T23:48:40.518Z,2.42
2022-09-28T23:51:10.148Z,3.00
2022-09-28T23:53:38.212Z,3.15
2022-09-28T23:56:06.899Z,3.30
2022-09-28T23:58:35.292Z,2.65
